• Join FlightAware (Why Join?)
  • Login
  • US Flag 
09:56AM EDT


 

Airport Tracker/Info


-or-


 

Live Flight TrackerFlight Track Log ✈ CTL9 ✈ 19-Jul-2013 ✈ KSGR - KDAL

Flight Track Log - Related Links

Times and Time Zones

All times are in EDT time to prevent confusion due to time zone crossing. See the CTL9 flight status page for this flight to view local times or setup timezone preferences in your user account.

Time Position Orientation Groundspeed Altitude Reporting Facility
EDT Latitude Longitude Course Direction KTS MPH feet Rate Location/Type
07:44PM 29.6161 -95.6783 321° Northwest 125 144 900  Level Houston Center
07:45PM 29.6344 -95.6953 290° West 153 176 1,300 420 Climbing Houston Center
07:46PM 29.6508 -95.7097 323° Northwest 143 165 1,500 480 Climbing Houston Center
07:47PM 29.7011 -95.7278 343° North 155 178 2,200 660 Climbing Houston Center
07:48PM 29.7411 -95.7408 344° North 152 175 2,900 660 Climbing Houston Center
07:49PM 29.7803 -95.7544 343° North 148 170 3,600 600 Climbing Houston Center
07:50PM 29.8189 -95.7672 344° North 146 168 4,200 540 Climbing Houston Center
07:51PM 29.8567 -95.7803 343° North 142 163 4,800 540 Climbing Houston Center
07:52PM 29.8958 -95.7925 345° North 145 167 5,400 480 Climbing Houston Center
07:53PM 29.9333 -95.8061 343° North 142 163 5,900 480 Climbing Houston Center
07:54PM 29.9792 -95.8206 345° North 141 162 6,500 480 Climbing Houston Center
07:55PM 30.0172 -95.8350 342° North 144 166 7,000 420 Climbing Houston Center
07:56PM 30.0561 -95.8478 344° North 144 166 7,400 420 Climbing Houston Center
07:57PM 30.0928 -95.8628 341° North 142 163 7,900 480 Climbing Houston Center
07:58PM 30.1300 -95.8753 344° North 140 161 8,400 240 Climbing Houston Center
07:59PM 30.1694 -95.8903 342° North 149 171 8,400  Level Houston Center
08:00PM 30.2228 -95.9086 343° North 163 188 8,400  Level Houston Center
08:01PM 30.2658 -95.9247 342° North 163 188 8,400  Level Houston Center
08:02PM 30.3097 -95.9386 345° North 163 188 8,400  Level Houston Center
08:03PM 30.3517 -95.9539 343° North 158 182 8,500  Climbing Houston Center
08:04PM 30.3956 -95.9700 342° North 164 189 8,400 -60 Descending Houston Center
08:05PM 30.4375 -95.9839 344° North 158 182 8,400  Level Houston Center
08:06PM 30.4814 -95.9992 343° North 164 189 8,400  Level Houston Center
08:07PM 30.5333 -96.0178 343° North 162 186 8,400  Level Houston Center
08:08PM 30.5767 -96.0319 344° North 162 186 8,400  Level Houston Center
08:09PM 30.6208 -96.0467 344° North 164 189 8,400  Level Houston Center
08:10PM 30.6661 -96.0631 343° North 165 190 8,400  Level Houston Center
08:11PM 30.7108 -96.0789 343° North 166 191 8,400  Level Houston Center
08:13PM 30.7556 -96.0936 344° North 167 192 8,500  Climbing Houston Center
08:14PM 30.7994 -96.1094 343° North 165 190 8,400 -60 Descending Houston Center
08:15PM 30.8431 -96.1236 344° North 162 186 8,400  Level Houston Center
08:16PM 30.8850 -96.1411 340° North 160 184 8,400  Level Houston Center
08:17PM 30.9361 -96.1575 345° North 160 184 8,400  Level Houston Center
08:18PM 30.9775 -96.1725 343° North 156 180 8,400  Level Houston Center
08:19PM 31.0194 -96.1875 343° North 156 180 8,400 -180 Level Houston Center
08:20PM 31.0619 -96.2044 341° North 161 185 8,100 -480 Descending Houston Center
08:21PM 31.1069 -96.2206 343° North 178 205 7,500 -600 Descending Houston Center
08:22PM 31.1603 -96.2383 344° North 182 209 6,900 -480 Descending Houston Center
08:23PM 31.2086 -96.2569 342° North 182 209 6,500 -240 Descending Houston Center
08:24PM 31.2550 -96.2725 344° North 175 201 6,500  Level Houston Center
08:25PM 31.2989 -96.2881 343° North 166 191 6,500  Level Houston Center
08:26PM 31.3517 -96.3061 344° North 167 192 6,500  Level Houston Center
08:27PM 31.3958 -96.3219 343° North 165 190 6,500  Level Houston Center
08:28PM 31.4400 -96.3383 342° North 165 190 6,500  Level Houston Center
08:29PM 31.4850 -96.3547 343° North 165 190 6,500  Level Houston Center
08:30PM 31.5275 -96.3719 341° North 163 188 6,500  Level Houston Center
08:31PM 31.5714 -96.3878 343° North 162 186 6,500 -60 Level Houston Center
08:32PM 31.6158 -96.4036 343° North 165 190 6,400 -60 Descending Houston Center
08:33PM 31.6594 -96.4200 342° North 163 188 6,400  Level Houston Center
08:34PM 31.7042 -96.4353 344° North 165 190 6,500  Climbing Houston Center
08:35PM 31.7567 -96.4525 344° North 166 191 6,500  Level Houston Center